map of LOV home
LOV - Airport
Location
City:  Monclova, Coahuila, México
Name:Venustiano Carranza International Airport
ICAO:MMMV
IATA:LOV

Details
Type:Airport (Aerodrome, Airfield)
Use:International (customs port of entry)
Latitude:26°57'21"N (26.955733)
Longitude:101°28'12"W (-101.470135)
Datum:WGS 1984
Elevation:1864 ft (568 m)
Variation:5.58°E (WMM2015 magnetic declination)
-0.11° annual change
Runways:2
Longest:6890 × 148 ft (2100 × 45 m), paved

Time
Time Zone:UTC-6 (DST-5)
Local Time:

Weather
METAR:MMMV 131735Z 25014KT 12SM SKC 21/07 A2995

Related Locations
Nearby:
Farthest:RRG: 11361 mi / 18284 km
Plaine Corail [Sir Gaëtan Duval Airport (Plaine Corail Airport)], Rodrigues Island, MU

Find:

   beyond  
but within

Other Information
Maps:
NOTAMs:
Links:
Sources:

  
  • flag of México
  • flag of Coahuila
  

Sectional Chart

Flight Planning
at skyvector.com

Satellite Image

Google Maps Satellite view

 

Copyright © 2004-2018 Karl L. Swartz. All rights reserved.
The Great Circle Mapper name and logo are trademarks of the Great Circle Mapper.
All other trademarks mentioned herein belong to their respective owners.
Please see credits for attibutions and further copyright information.

  Follow gcmap on Facebook Follow gcmap on Twitter Follow gcmap on Google+ GCmap on LinkedIn

hCard Microformat

Geo Microformat